createdAt,value
2017-04-28T00:00:33.448Z,6.30
2017-04-28T00:03:01.824Z,6.20
2017-04-28T00:05:30.204Z,6.10
2017-04-28T00:07:58.590Z,6.00
2017-04-28T00:10:26.879Z,6.00
2017-04-28T00:12:55.237Z,6.10
2017-04-28T00:15:23.513Z,6.10
2017-04-28T00:17:51.805Z,6.10
2017-04-28T00:20:20.084Z,6.20
2017-04-28T00:22:48.379Z,6.00
2017-04-28T00:25:17.411Z,6.00
2017-04-28T00:27:45.992Z,6.00
2017-04-28T00:30:14.392Z,6.00
2017-04-28T00:32:42.660Z,6.10
2017-04-28T00:35:10.961Z,6.10
2017-04-28T00:37:39.244Z,6.10
2017-04-28T00:40:07.555Z,6.10
2017-04-28T00:42:35.844Z,6.10
2017-04-28T00:45:04.158Z,6.00
2017-04-28T00:47:32.531Z,6.00
2017-04-28T00:50:00.904Z,6.00
2017-04-28T00:52:29.200Z,6.00
2017-04-28T00:54:57.475Z,6.00
2017-04-28T00:57:25.771Z,6.10
2017-04-28T00:59:54.059Z,6.10
2017-04-28T01:02:23.091Z,6.10
2017-04-28T01:04:51.387Z,6.10
2017-04-28T01:07:19.759Z,6.10
2017-04-28T01:09:48.264Z,6.20
2017-04-28T01:12:16.618Z,6.10
2017-04-28T01:14:44.999Z,6.10
2017-04-28T01:17:13.395Z,6.20
2017-04-28T01:19:41.697Z,6.20
2017-04-28T01:27:23.995Z,6.20
2017-04-28T01:29:52.296Z,6.20
2017-04-28T01:32:20.579Z,6.10
2017-04-28T01:34:48.856Z,6.10
2017-04-28T01:37:17.143Z,6.10
2017-04-28T01:39:46.156Z,6.10
2017-04-28T01:42:14.447Z,6.10
2017-04-28T01:44:42.952Z,6.10
2017-04-28T01:47:11.253Z,6.10
2017-04-28T01:49:40.316Z,6.00
2017-04-28T01:52:08.616Z,6.10
2017-04-28T01:54:36.905Z,6.00
2017-04-28T01:57:05.922Z,6.00
2017-04-28T01:59:34.232Z,6.00
2017-04-28T02:02:02.513Z,6.00
2017-04-28T02:04:30.840Z,6.00
2017-04-28T02:06:59.884Z,6.00
2017-04-28T02:09:28.307Z,6.00
2017-04-28T02:11:57.353Z,6.00
2017-04-28T02:14:25.660Z,6.00
2017-04-28T02:16:54.008Z,6.00
2017-04-28T02:19:22.375Z,6.00
2017-04-28T02:21:50.671Z,6.00
2017-04-28T02:24:18.948Z,6.00
2017-04-28T02:26:47.247Z,6.00
2017-04-28T02:29:15.532Z,5.90
2017-04-28T02:31:44.591Z,5.90
2017-04-28T02:34:12.964Z,5.90
2017-04-28T02:36:41.243Z,5.90
2017-04-28T02:39:09.543Z,5.90
2017-04-28T02:41:37.888Z,6.00
2017-04-28T02:44:06.297Z,6.00
2017-04-28T02:46:34.568Z,6.00
2017-04-28T02:49:02.863Z,5.90
2017-04-28T02:51:31.883Z,5.80
2017-04-28T02:54:00.193Z,5.90
2017-04-28T02:56:28.582Z,5.80
2017-04-28T02:58:56.900Z,5.80
2017-04-28T03:01:25.188Z,5.80
2017-04-28T03:03:53.467Z,5.90
2017-04-28T03:06:21.768Z,5.90
2017-04-28T03:08:50.055Z,5.90
2017-04-28T03:11:18.360Z,5.90
2017-04-28T03:13:47.422Z,5.90
2017-04-28T03:16:15.716Z,5.90
2017-04-28T03:18:43.997Z,5.90
2017-04-28T03:21:12.295Z,5.90
2017-04-28T03:23:41.317Z,5.90
2017-04-28T03:26:09.611Z,5.80
2017-04-28T03:28:37.908Z,5.80
2017-04-28T03:31:06.855Z,5.80
2017-04-28T03:33:35.263Z,5.80
2017-04-28T03:36:03.643Z,5.80
2017-04-28T03:38:32.015Z,5.80
2017-04-28T03:41:00.299Z,5.80
2017-04-28T03:43:28.669Z,5.90
2017-04-28T03:45:56.955Z,5.80
2017-04-28T03:48:25.236Z,5.80
2017-04-28T03:50:53.604Z,5.70
2017-04-28T03:53:22.491Z,5.70
2017-04-28T03:55:50.872Z,5.70
2017-04-28T03:58:19.151Z,5.70
2017-04-28T04:00:47.455Z,5.70
2017-04-28T04:03:15.741Z,5.70
2017-04-28T04:05:44.759Z,5.70
2017-04-28T04:08:13.166Z,5.70
2017-04-28T04:10:41.451Z,5.60
2017-04-28T04:13:09.749Z,5.60
2017-04-28T04:15:38.027Z,5.60
2017-04-28T04:18:06.371Z,5.60
2017-04-28T04:20:34.653Z,5.60
2017-04-28T04:23:02.951Z,5.50
2017-04-28T04:25:31.239Z,5.50
2017-04-28T04:27:59.548Z,5.50
2017-04-28T04:30:27.856Z,5.40
2017-04-28T04:32:56.136Z,5.40
2017-04-28T04:35:24.441Z,5.40
2017-04-28T04:37:52.735Z,5.40
2017-04-28T04:40:21.776Z,5.40
2017-04-28T04:42:50.056Z,5.40
2017-04-28T04:45:18.432Z,5.50
2017-04-28T04:47:46.713Z,5.50
2017-04-28T04:50:15.005Z,5.50
2017-04-28T04:52:43.311Z,5.60
2017-04-28T04:55:12.344Z,5.50
2017-04-28T04:57:40.641Z,5.50
2017-04-28T05:00:08.935Z,5.50
2017-04-28T05:02:38.140Z,5.50
2017-04-28T05:05:06.425Z,5.50
2017-04-28T05:07:35.464Z,5.50
2017-04-28T05:10:03.748Z,5.50
2017-04-28T05:12:32.056Z,5.60
2017-04-28T05:15:00.400Z,5.50
2017-04-28T05:17:28.700Z,5.50
2017-04-28T05:19:57.003Z,5.50
2017-04-28T05:22:26.023Z,5.50
2017-04-28T05:24:54.325Z,5.50
2017-04-28T05:27:22.700Z,5.50
2017-04-28T05:29:50.999Z,5.50
2017-04-28T05:32:19.285Z,5.50
2017-04-28T05:34:47.638Z,5.40
2017-04-28T05:37:15.928Z,5.40
2017-04-28T05:39:44.209Z,5.40
2017-04-28T05:42:12.619Z,5.40
2017-04-28T05:44:41.663Z,5.40
2017-04-28T05:47:09.956Z,5.40
2017-04-28T05:49:38.303Z,5.40
2017-04-28T05:52:06.604Z,5.40
2017-04-28T05:54:34.894Z,5.30
2017-04-28T05:57:03.207Z,5.40
2017-04-28T05:59:31.492Z,5.40
2017-04-28T06:01:59.771Z,5.40
2017-04-28T06:04:28.071Z,5.50
2017-04-28T06:06:56.348Z,5.40
2017-04-28T06:09:25.319Z,5.40
2017-04-28T06:11:53.712Z,5.40
2017-04-28T06:14:22.008Z,5.40
2017-04-28T06:16:50.288Z,5.40
2017-04-28T06:19:18.591Z,5.40
2017-04-28T06:21:47.635Z,5.50
2017-04-28T06:24:15.932Z,5.50
2017-04-28T06:26:44.292Z,5.60
2017-04-28T06:29:12.591Z,5.60
2017-04-28T06:31:41.284Z,5.60
2017-04-28T06:34:10.347Z,5.70
2017-04-28T06:36:38.641Z,5.80
2017-04-28T06:39:06.929Z,6.00
2017-04-28T06:41:35.251Z,6.00
2017-04-28T06:44:03.535Z,6.10
2017-04-28T06:46:31.829Z,6.10
2017-04-28T06:49:00.120Z,6.20
2017-04-28T06:51:28.423Z,6.30
2017-04-28T06:53:57.479Z,6.40
2017-04-28T06:56:25.875Z,6.60
2017-04-28T06:58:54.226Z,6.80
2017-04-28T07:01:22.512Z,6.80
2017-04-28T07:03:50.808Z,6.80
2017-04-28T07:06:19.094Z,6.90
2017-04-28T07:08:48.151Z,6.90
2017-04-28T07:11:16.436Z,7.10
2017-04-28T07:13:45.112Z,7.00
2017-04-28T07:16:13.388Z,7.10
2017-04-28T07:18:41.767Z,7.10
2017-04-28T07:21:10.140Z,7.10
2017-04-28T07:23:38.427Z,7.20
2017-04-28T07:26:06.729Z,7.40
2017-04-28T07:28:35.020Z,7.50
2017-04-28T07:31:04.055Z,7.50
2017-04-28T07:33:32.332Z,7.70
2017-04-28T07:36:00.624Z,7.90
2017-04-28T07:38:28.909Z,7.90
2017-04-28T07:40:57.209Z,7.90
2017-04-28T07:43:26.233Z,8.10
2017-04-28T07:45:54.524Z,8.20
2017-04-28T07:48:22.812Z,8.40
2017-04-28T07:50:51.124Z,8.40
2017-04-28T07:53:19.442Z,8.20
2017-04-28T07:55:47.727Z,8.10
2017-04-28T07:58:16.020Z,8.20
2017-04-28T08:00:44.305Z,8.20
2017-04-28T08:03:12.673Z,8.20
2017-04-28T08:05:40.954Z,8.30
2017-04-28T08:08:09.333Z,8.30
2017-04-28T08:10:37.617Z,8.30
2017-04-28T08:13:05.927Z,8.50
2017-04-28T08:15:35.759Z,8.70
2017-04-28T08:18:04.323Z,8.80
2017-04-28T08:20:33.472Z,8.80
2017-04-28T08:23:01.752Z,8.80
2017-04-28T08:25:30.052Z,8.90
2017-04-28T08:27:58.397Z,8.90
2017-04-28T08:30:26.695Z,8.90
2017-04-28T08:32:54.973Z,9.10
2017-04-28T08:35:23.256Z,9.10
2017-04-28T08:37:51.560Z,9.00
2017-04-28T08:40:21.005Z,9.00
2017-04-28T08:42:49.301Z,9.10
2017-04-28T08:45:17.590Z,9.00
2017-04-28T08:47:45.933Z,9.20
2017-04-28T08:50:14.226Z,9.30
2017-04-28T08:52:42.519Z,9.60
2017-04-28T08:55:10.804Z,9.70
2017-04-28T08:57:39.864Z,9.80
2017-04-28T09:00:08.161Z,9.80
2017-04-28T09:02:37.012Z,9.80
2017-04-28T09:05:05.401Z,9.80
2017-04-28T09:07:34.612Z,10.00
2017-04-28T09:10:02.979Z,9.90
2017-04-28T09:12:31.260Z,9.50
2017-04-28T09:14:59.628Z,9.50
2017-04-28T09:17:27.907Z,9.60
2017-04-28T09:19:56.216Z,9.60
2017-04-28T09:22:24.499Z,9.70
2017-04-28T09:24:53.656Z,9.90
2017-04-28T09:27:22.137Z,10.10
2017-04-28T09:29:50.420Z,10.40
2017-04-28T09:32:18.725Z,10.70
2017-04-28T09:34:47.752Z,11.00
2017-04-28T09:37:16.053Z,11.30
2017-04-28T09:39:44.339Z,11.40
2017-04-28T09:42:12.640Z,11.60
2017-04-28T09:44:40.923Z,11.60
2017-04-28T09:47:09.264Z,11.80
2017-04-28T09:49:37.547Z,12.30
2017-04-28T09:52:05.847Z,12.50
2017-04-28T09:54:34.127Z,12.60
2017-04-28T09:57:03.220Z,12.80
2017-04-28T09:59:31.520Z,12.50
2017-04-28T10:01:59.816Z,11.80
2017-04-28T10:04:28.113Z,11.40
2017-04-28T10:06:56.490Z,11.00
2017-04-28T10:09:24.868Z,10.80
2017-04-28T10:11:53.151Z,10.60
2017-04-28T10:14:21.863Z,10.60
2017-04-28T10:16:50.210Z,10.50
2017-04-28T10:19:18.527Z,11.00
2017-04-28T10:21:47.579Z,12.10
2017-04-28T10:24:15.864Z,13.20
2017-04-28T10:26:44.455Z,13.30
2017-04-28T10:29:12.736Z,13.30
2017-04-28T10:31:41.092Z,12.80
2017-04-28T10:34:09.468Z,12.10
2017-04-28T10:36:37.773Z,11.50
2017-04-28T10:39:06.051Z,11.10
2017-04-28T10:41:34.365Z,10.70
2017-04-28T10:44:02.644Z,10.60
2017-04-28T10:46:30.947Z,11.00
2017-04-28T10:48:59.247Z,11.80
2017-04-28T10:51:27.527Z,12.20
2017-04-28T10:53:55.829Z,12.20
2017-04-28T10:56:24.847Z,12.30
2017-04-28T10:58:53.159Z,12.80
2017-04-28T11:01:21.447Z,13.30
2017-04-28T11:03:49.731Z,13.30
2017-04-28T11:06:18.037Z,12.60
2017-04-28T11:08:46.351Z,12.00
2017-04-28T11:11:14.656Z,11.80
2017-04-28T11:13:42.962Z,12.30
2017-04-28T11:16:12.147Z,13.10
2017-04-28T11:18:41.196Z,13.30
2017-04-28T11:21:09.477Z,13.40
2017-04-28T11:23:37.844Z,13.50
2017-04-28T11:26:06.224Z,13.20
2017-04-28T11:28:34.523Z,13.20
2017-04-28T11:31:02.799Z,13.00
2017-04-28T11:33:31.096Z,13.30
2017-04-28T11:36:00.115Z,13.60
2017-04-28T11:38:28.407Z,13.90
2017-04-28T11:40:56.684Z,14.20
2017-04-28T11:43:24.981Z,14.20
2017-04-28T11:45:53.272Z,14.20
2017-04-28T11:48:21.621Z,14.00
2017-04-28T11:50:49.928Z,13.90
2017-04-28T11:53:18.388Z,14.00
2017-04-28T11:55:46.764Z,14.00
2017-04-28T11:58:15.040Z,14.00
2017-04-28T12:00:43.347Z,13.90
2017-04-28T12:03:11.698Z,13.80
2017-04-28T12:05:39.976Z,13.80
2017-04-28T12:08:08.271Z,13.50
2017-04-28T12:10:36.552Z,13.30
2017-04-28T12:13:04.843Z,13.00
2017-04-28T12:15:34.380Z,12.80
2017-04-28T12:18:02.679Z,12.50
2017-04-28T12:20:30.955Z,12.40
2017-04-28T12:22:59.252Z,12.20
2017-04-28T12:25:27.531Z,12.10
2017-04-28T12:27:55.835Z,12.20
2017-04-28T12:30:24.876Z,12.30
2017-04-28T12:32:53.155Z,12.50
2017-04-28T12:35:21.523Z,12.70
2017-04-28T12:37:49.909Z,12.90
2017-04-28T12:40:18.221Z,13.10
2017-04-28T12:42:47.239Z,13.40
2017-04-28T12:45:15.516Z,13.50
2017-04-28T12:47:43.816Z,13.70
2017-04-28T12:50:12.100Z,13.90
2017-04-28T12:52:40.487Z,13.90
2017-04-28T12:55:08.765Z,13.80
2017-04-28T12:57:37.055Z,14.00
2017-04-28T13:00:05.332Z,14.20
2017-04-28T13:02:33.692Z,14.30
2017-04-28T13:05:01.975Z,14.10
2017-04-28T13:07:30.288Z,14.10
2017-04-28T13:09:59.344Z,13.70
2017-04-28T13:12:27.712Z,13.80
2017-04-28T13:14:56.088Z,13.80
2017-04-28T13:17:24.368Z,13.40
2017-04-28T13:19:52.668Z,13.40
2017-04-28T13:22:20.968Z,13.20
2017-04-28T13:24:50.019Z,13.00
2017-04-28T13:27:18.393Z,12.50
2017-04-28T13:29:46.677Z,12.30
2017-04-28T13:32:14.976Z,12.20
2017-04-28T13:34:43.256Z,12.20
2017-04-28T13:37:11.556Z,12.30
2017-04-28T13:39:40.051Z,12.50
2017-04-28T13:42:08.349Z,12.70
2017-04-28T13:44:36.632Z,13.10
2017-04-28T13:47:04.951Z,13.20
2017-04-28T13:49:33.971Z,13.40
2017-04-28T13:52:02.277Z,13.50
2017-04-28T13:54:30.592Z,13.60
2017-04-28T13:56:59.621Z,13.70
2017-04-28T13:59:27.919Z,14.00
2017-04-28T14:01:56.394Z,14.90
2017-04-28T14:04:24.781Z,15.80
2017-04-28T14:06:53.060Z,16.40
2017-04-28T14:09:21.363Z,17.70
2017-04-28T14:11:49.640Z,18.40
2017-04-28T14:14:17.920Z,18.50
2017-04-28T14:16:46.210Z,18.10
2017-04-28T14:19:15.228Z,18.40
2017-04-28T14:21:43.629Z,19.10
2017-04-28T14:24:12.003Z,19.30
2017-04-28T14:26:40.316Z,17.90
2017-04-28T14:29:08.664Z,17.30
2017-04-28T14:31:37.004Z,18.40
2017-04-28T14:34:05.318Z,20.30
2017-04-28T14:36:33.692Z,20.00
2017-04-28T14:39:01.990Z,19.30
2017-04-28T14:41:30.265Z,19.60
2017-04-28T14:43:58.555Z,19.50
2017-04-28T14:46:26.832Z,18.80
2017-04-28T14:48:55.179Z,18.90
2017-04-28T14:51:23.456Z,18.20
2017-04-28T14:53:51.830Z,18.70
2017-04-28T14:56:21.175Z,19.00
2017-04-28T14:58:50.729Z,18.20
2017-04-28T15:01:19.031Z,17.30
2017-04-28T15:03:47.315Z,15.80
2017-04-28T15:06:15.611Z,14.60
2017-04-28T15:08:44.920Z,14.20
2017-04-28T15:11:13.231Z,14.70
2017-04-28T15:13:41.527Z,16.30
2017-04-28T15:16:09.807Z,18.80
2017-04-28T15:18:38.120Z,20.50
2017-04-28T15:21:07.151Z,21.40
2017-04-28T15:23:35.467Z,22.50
2017-04-28T15:26:03.812Z,20.80
2017-04-28T15:28:32.639Z,17.90
2017-04-28T15:31:00.983Z,16.30
2017-04-28T15:33:29.328Z,14.70
2017-04-28T15:35:57.608Z,14.00
2017-04-28T15:38:25.888Z,13.60
2017-04-28T15:40:54.196Z,13.70
2017-04-28T15:43:22.479Z,14.10
2017-04-28T15:45:50.772Z,14.10
2017-04-28T15:48:19.049Z,14.00
2017-04-28T15:50:48.093Z,13.70
2017-04-28T15:53:16.368Z,13.80
2017-04-28T15:55:44.675Z,13.80
2017-04-28T15:58:13.072Z,13.60
2017-04-28T16:00:42.233Z,13.40
2017-04-28T16:03:10.527Z,13.50
2017-04-28T16:05:38.807Z,13.30
2017-04-28T16:08:07.112Z,13.00
2017-04-28T16:10:36.128Z,12.90
2017-04-28T16:13:04.535Z,13.20
2017-04-28T16:15:32.815Z,13.30
2017-04-28T16:18:01.108Z,13.40
2017-04-28T16:20:29.538Z,13.50
2017-04-28T16:22:57.944Z,13.60
2017-04-28T16:25:26.329Z,13.60
2017-04-28T16:27:54.644Z,13.60
2017-04-28T16:30:23.931Z,13.50
2017-04-28T16:32:52.289Z,13.40
2017-04-28T16:35:20.600Z,13.20
2017-04-28T16:37:48.933Z,13.00
2017-04-28T16:40:17.239Z,12.90
2017-04-28T16:42:45.520Z,12.70
2017-04-28T16:45:14.555Z,12.70
2017-04-28T16:47:42.841Z,12.60
2017-04-28T16:50:11.179Z,12.50
2017-04-28T16:52:39.504Z,12.30
2017-04-28T16:55:07.779Z,12.30
2017-04-28T16:57:36.075Z,12.20
2017-04-28T17:00:04.767Z,12.20
2017-04-28T17:02:33.063Z,12.20
2017-04-28T17:05:02.085Z,12.20
2017-04-28T17:07:30.379Z,12.30
2017-04-28T17:09:58.784Z,12.40
2017-04-28T17:12:27.087Z,12.50
2017-04-28T17:14:55.416Z,12.60
2017-04-28T17:17:23.708Z,12.50
2017-04-28T17:19:51.985Z,12.30
2017-04-28T17:22:20.303Z,12.10
2017-04-28T17:24:48.579Z,12.00
2017-04-28T17:27:17.860Z,12.00
2017-04-28T17:29:46.896Z,11.80
2017-04-28T17:32:15.216Z,11.60
2017-04-28T17:34:43.576Z,11.60
2017-04-28T17:37:11.939Z,11.60
2017-04-28T17:39:40.324Z,11.40
2017-04-28T17:42:08.699Z,11.40
2017-04-28T17:44:36.995Z,11.30
2017-04-28T17:47:05.280Z,11.20
2017-04-28T17:49:33.632Z,11.20
2017-04-28T17:52:02.008Z,11.20
2017-04-28T17:54:30.289Z,11.10
2017-04-28T17:56:58.586Z,11.00
2017-04-28T17:59:26.941Z,10.90
2017-04-28T18:01:55.311Z,10.90
2017-04-28T18:04:23.584Z,10.70
2017-04-28T18:06:51.880Z,10.70
2017-04-28T18:09:20.253Z,10.70
2017-04-28T18:11:48.621Z,10.60
2017-04-28T18:14:16.916Z,10.60
2017-04-28T18:16:45.200Z,10.60
2017-04-28T18:19:13.500Z,10.60
2017-04-28T18:21:42.884Z,10.50
2017-04-28T18:24:11.232Z,10.50
2017-04-28T18:26:39.520Z,10.50
2017-04-28T18:29:07.884Z,10.40
2017-04-28T18:31:36.163Z,10.40
2017-04-28T18:34:04.439Z,10.40
2017-04-28T18:36:32.732Z,10.40
2017-04-28T18:39:01.020Z,10.30
2017-04-28T18:41:29.309Z,10.30
2017-04-28T18:43:58.329Z,10.30
2017-04-28T18:46:26.625Z,10.20
2017-04-28T18:48:54.900Z,10.20
2017-04-28T18:51:23.217Z,10.20
2017-04-28T18:53:52.253Z,10.10
2017-04-28T18:56:20.563Z,10.10
2017-04-28T18:58:48.865Z,10.10
2017-04-28T19:01:17.144Z,10.10
2017-04-28T19:03:46.184Z,10.10
2017-04-28T19:06:14.478Z,10.10
2017-04-28T19:08:42.772Z,10.10
2017-04-28T19:11:11.055Z,10.00
2017-04-28T19:13:39.348Z,10.00
2017-04-28T19:16:08.396Z,10.00
2017-04-28T19:18:36.771Z,9.90
2017-04-28T19:21:05.043Z,9.90
2017-04-28T19:23:33.316Z,9.80
2017-04-28T19:26:01.607Z,9.70
2017-04-28T19:28:29.891Z,9.60
2017-04-28T19:30:58.187Z,9.60
2017-04-28T19:33:26.465Z,9.50
2017-04-28T19:35:55.224Z,9.50
2017-04-28T19:38:24.112Z,9.40
2017-04-28T19:40:52.391Z,9.40
2017-04-28T19:43:20.764Z,9.40
2017-04-28T19:45:49.143Z,9.40
2017-04-28T19:48:17.477Z,9.30
2017-04-28T19:50:45.753Z,9.30
2017-04-28T19:53:14.074Z,9.30
2017-04-28T19:55:42.351Z,9.30
2017-04-28T19:58:10.726Z,9.20
2017-04-28T20:00:39.003Z,9.20
2017-04-28T20:03:07.303Z,9.20
2017-04-28T20:05:35.660Z,9.20
2017-04-28T20:08:03.944Z,9.20
2017-04-28T20:10:32.234Z,9.20
2017-04-28T20:13:00.688Z,9.20
2017-04-28T20:15:28.983Z,9.10
2017-04-28T20:17:57.519Z,9.10
2017-04-28T20:20:25.812Z,9.10
2017-04-28T20:22:54.661Z,9.10
2017-04-28T20:25:24.323Z,9.10
2017-04-28T20:27:52.600Z,9.10
2017-04-28T20:30:21.692Z,9.10
2017-04-28T20:32:50.060Z,9.10
2017-04-28T20:35:18.332Z,9.10
2017-04-28T20:37:46.624Z,9.10
2017-04-28T20:40:14.992Z,9.10
2017-04-28T20:42:43.292Z,9.00
2017-04-28T20:45:11.651Z,9.10
2017-04-28T20:47:39.941Z,9.10
2017-04-28T20:50:08.215Z,9.10
2017-04-28T20:52:36.515Z,9.00
2017-04-28T20:55:05.536Z,9.00
2017-04-28T20:57:33.811Z,9.00
2017-04-28T21:00:02.109Z,9.00
2017-04-28T21:02:30.437Z,9.00
2017-04-28T21:04:59.496Z,9.00
2017-04-28T21:07:27.788Z,9.00
2017-04-28T21:09:56.082Z,9.00
2017-04-28T21:12:25.095Z,8.90
2017-04-28T21:14:53.413Z,8.70
2017-04-28T21:17:21.784Z,8.70
2017-04-28T21:19:50.059Z,8.70
2017-04-28T21:22:18.446Z,8.60
2017-04-28T21:24:46.743Z,8.60
2017-04-28T21:27:15.035Z,8.60
2017-04-28T21:29:44.055Z,8.60
2017-04-28T21:32:12.344Z,8.60
2017-04-28T21:34:40.628Z,8.60
2017-04-28T21:37:08.924Z,8.60
2017-04-28T21:39:37.204Z,8.60
2017-04-28T21:42:05.507Z,8.60
2017-04-28T21:44:33.811Z,8.70
2017-04-28T21:47:02.120Z,8.60
2017-04-28T21:49:30.421Z,8.70
2017-04-28T21:51:58.781Z,8.70
2017-04-28T21:54:27.153Z,8.70
2017-04-28T21:56:55.528Z,8.60
2017-04-28T21:59:23.825Z,8.60
2017-04-28T22:01:52.103Z,8.60
2017-04-28T22:04:20.411Z,8.70
2017-04-28T22:06:49.452Z,8.70
2017-04-28T22:09:17.724Z,8.80
2017-04-28T22:11:46.011Z,8.80
2017-04-28T22:14:14.388Z,8.80
2017-04-28T22:16:48.437Z,8.80
2017-04-28T22:19:17.456Z,8.80
2017-04-28T22:21:45.748Z,8.90
2017-04-28T22:24:14.025Z,8.90
2017-04-28T22:26:42.440Z,8.80
2017-04-28T22:29:11.564Z,8.80
2017-04-28T22:31:40.929Z,8.80
2017-04-28T22:34:09.288Z,8.80
2017-04-28T22:36:37.580Z,8.80
2017-04-28T22:39:05.940Z,8.70
2017-04-28T22:41:34.218Z,8.80
2017-04-28T22:44:03.183Z,8.80
2017-04-28T22:46:31.499Z,8.70
2017-04-28T22:48:59.787Z,8.70
2017-04-28T22:51:28.139Z,8.70
2017-04-28T22:53:56.436Z,8.70
2017-04-28T22:56:24.715Z,8.70
2017-04-28T22:58:52.996Z,8.60
2017-04-28T23:01:21.349Z,8.70
2017-04-28T23:03:49.619Z,8.70
2017-04-28T23:06:17.996Z,8.70
2017-04-28T23:08:46.381Z,8.60
2017-04-28T23:11:14.686Z,8.60
2017-04-28T23:13:43.036Z,8.60
2017-04-28T23:16:11.321Z,8.60
2017-04-28T23:18:39.613Z,8.70
2017-04-28T23:21:07.905Z,8.70
2017-04-28T23:23:36.943Z,8.60
2017-04-28T23:26:05.212Z,8.60
2017-04-28T23:28:33.505Z,8.50
2017-04-28T23:31:01.788Z,8.60
2017-04-28T23:33:30.160Z,8.60
2017-04-28T23:35:58.432Z,8.60
2017-04-28T23:38:26.720Z,8.60
2017-04-28T23:40:54.992Z,8.60
2017-04-28T23:43:23.301Z,8.60
2017-04-28T23:45:51.577Z,8.60
2017-04-28T23:48:20.591Z,8.50
2017-04-28T23:50:48.887Z,8.50
2017-04-28T23:53:17.171Z,8.60
2017-04-28T23:55:45.460Z,8.60
2017-04-28T23:58:13.739Z,8.50
